Time;durP1;ratioP1;P1;durP2;ratioP2;P2;SDS_P1;SDS_P2;PMS_P1;PMS_P2;Temp;Humidity;BMP_temperature;BMP_pressure;BME280_temperature;BME280_humidity;BME280_pressure;Samples;Min_cycle;Max_cycle;Signal;HPM_P1;HPM_P2
2023/08/06 00:00:27;;;;;;;9.52;8.52;;;;;;;-144.30;87.85;84001.19;5092198;28;20705;-50
2023/08/06 00:03:11;;;;;;;14.68;8.52;;;;;;;-144.30;87.72;84040.91;5092242;28;20315;-55
2023/08/06 00:06:20;;;;;;;9.93;8.10;;;;;;;-144.30;87.28;84036.94;5091151;28;20195;-54
2023/08/06 00:09:08;;;;;;;10.02;8.82;;;;;;;-144.30;87.32;84056.81;5092278;28;20690;-51
2023/08/06 00:11:55;;;;;;;12.75;8.85;;;;;;;-144.30;87.65;84054.84;5091284;28;20192;-54
2023/08/06 00:14:47;;;;;;;10.55;9.35;;;;;;;-144.30;88.23;84066.75;5091842;28;20192;-55
2023/08/06 00:17:33;;;;;;;14.25;9.32;;;;;;;-144.30;88.74;84084.66;5092068;28;20199;-50
2023/08/06 00:20:17;;;;;;;9.85;8.90;;;;;;;-144.30;89.19;84100.53;5092076;28;20622;-54
2023/08/06 00:22:56;;;;;;;9.57;8.65;;;;;;;-144.30;89.57;84072.72;5091900;28;20643;-54
2023/08/06 00:25:38;;;;;;;14.80;9.25;;;;;;;-144.30;89.72;84102.53;5091646;28;20596;-54
2023/08/06 00:28:23;;;;;;;12.27;9.23;;;;;;;-144.30;90.58;84100.53;5091423;28;20195;-53
2023/08/06 00:31:17;;;;;;;14.30;9.45;;;;;;;-144.30;91.53;84136.31;5091036;28;20224;-50
2023/08/06 00:34:02;;;;;;;10.07;8.93;;;;;;;-144.30;92.33;84108.50;5090576;28;20187;-50
2023/08/06 00:36:35;;;;;;;10.75;9.75;;;;;;;-144.30;93.03;84154.19;5091518;28;20234;-54
2023/08/06 00:39:19;;;;;;;10.57;9.55;;;;;;;-144.30;93.27;84154.19;5090557;28;20237;-51
2023/08/06 00:41:54;;;;;;;11.40;10.15;;;;;;;-144.30;93.87;84152.22;5091504;28;20677;-50
2023/08/06 00:44:50;;;;;;;10.88;9.57;;;;;;;-144.30;94.00;84178.03;5091298;28;20219;-50
2023/08/06 00:47:45;;;;;;;11.43;10.10;;;;;;;-144.30;93.95;84140.28;5090678;28;20231;-51
2023/08/06 00:53:32;;;;;;;10.27;9.25;;;;;;;-144.30;94.55;84158.16;5078971;28;20338;-54
2023/08/06 00:56:23;;;;;;;11.30;9.73;;;;;;;-144.30;94.77;84172.06;5090039;28;20231;-54
2023/08/06 00:59:01;;;;;;;10.82;9.73;;;;;;;-144.30;94.57;84138.28;5091273;28;20195;-54
2023/08/06 01:01:52;;;;;;;12.35;10.07;;;;;;;-144.30;94.79;84172.06;5091704;28;20202;-54
2023/08/06 01:04:32;;;;;;;12.32;10.35;;;;;;;-144.30;94.65;84140.28;5091053;28;20219;-55
2023/08/06 01:07:25;;;;;;;12.80;10.35;;;;;;;-144.30;94.38;84168.09;5090947;28;20941;-50
2023/08/06 01:10:22;;;;;;;11.90;10.57;;;;;;;-144.30;94.47;84140.28;5090313;28;20199;-50
2023/08/06 01:13:14;;;;;;;11.57;9.88;;;;;;;-144.30;95.09;84176.06;5090757;28;20191;-49
2023/08/06 01:15:55;;;;;;;11.90;10.63;;;;;;;-144.30;95.41;84217.78;5090755;28;20199;-49
2023/08/06 01:18:37;;;;;;;11.52;10.40;;;;;;;-144.30;95.47;84245.59;5090852;28;20214;-50
2023/08/06 01:21:29;;;;;;;10.80;9.80;;;;;;;-144.30;95.59;84172.06;5090608;28;20640;-50
2023/08/06 01:24:00;;;;;;;12.05;10.48;;;;;;;-144.30;95.60;84199.91;5088966;28;20219;-49
2023/08/06 01:26:50;;;;;;;12.15;10.70;;;;;;;-144.30;95.38;84195.94;5090751;28;20195;-50
2023/08/06 01:29:28;;;;;;;16.42;10.93;;;;;;;-144.30;95.42;84189.97;5089518;28;20248;-51
2023/08/06 01:32:13;;;;;;;11.40;10.25;;;;;;;-144.30;95.42;84215.78;5090427;28;20290;-55
2023/08/06 01:35:01;;;;;;;13.73;10.30;;;;;;;-144.30;95.25;84199.91;5090691;28;20642;-50
2023/08/06 01:37:42;;;;;;;12.02;10.10;;;;;;;-144.30;95.47;84217.78;5090539;28;20571;-50
2023/08/06 01:40:29;;;;;;;11.18;10.15;;;;;;;-144.30;95.55;84195.94;5089567;28;20199;-50
2023/08/06 01:43:12;;;;;;;11.95;10.88;;;;;;;-144.30;95.60;84213.81;5090137;28;20230;-51
2023/08/06 01:45:47;;;;;;;13.05;10.75;;;;;;;-144.30;95.86;84219.78;5089520;28;20249;-54
2023/08/06 01:48:33;;;;;;;16.30;10.45;;;;;;;-144.30;95.87;84191.94;5089719;28;20264;-53
2023/08/06 01:51:14;;;;;;;11.45;10.30;;;;;;;-144.30;95.80;84211.81;5090343;28;20650;-50
2023/08/06 01:54:04;;;;;;;11.02;9.82;;;;;;;-144.30;95.73;84207.84;5089468;28;20276;-50
2023/08/06 01:56:55;;;;;;;13.43;10.65;;;;;;;-144.30;95.66;84225.75;5090213;28;20286;-50
2023/08/06 01:59:44;;;;;;;12.23;10.07;;;;;;;-144.30;95.52;84211.81;5090405;28;20494;-53
2023/08/06 02:02:41;;;;;;;;;;;;;;;;;;;;;
2023/08/06 02:05:27;;;;;;;12.38;11.18;;;;;;;-144.30;95.47;84195.94;5089836;28;20203;-50
2023/08/06 02:08:06;;;;;;;14.73;10.98;;;;;;;-144.30;95.49;84215.78;5089049;28;20230;-51
2023/08/06 02:11:05;;;;;;;11.70;10.65;;;;;;;-144.30;95.10;84182.00;5090102;28;20194;-54
2023/08/06 02:13:51;;;;;;;12.02;10.93;;;;;;;-144.30;94.94;84227.72;5089717;28;20390;-53
2023/08/06 02:16:48;;;;;;;13.30;11.27;;;;;;;-144.30;94.87;84209.84;5089823;28;20264;-55
2023/08/06 02:19:43;;;;;;;11.57;10.52;;;;;;;-144.30;94.52;84136.31;5090026;28;20692;-56
2023/08/06 02:22:31;;;;;;;15.70;10.93;;;;;;;-144.30;94.48;84195.94;5088668;28;20211;-51
2023/08/06 02:25:16;;;;;;;11.77;10.68;;;;;;;-144.30;94.53;84168.09;5088565;28;20223;-50
2023/08/06 02:28:14;;;;;;;14.63;10.30;;;;;;;-144.30;94.65;84156.19;5088812;28;20690;-56
2023/08/06 02:31:06;;;;;;;11.85;10.88;;;;;;;-144.30;94.34;84144.25;5089126;28;20289;-55
2023/08/06 02:34:06;;;;;;;12.48;9.95;;;;;;;-144.30;94.24;84193.94;5089894;28;20746;-57
2023/08/06 02:36:51;;;;;;;12.60;11.20;;;;;;;-144.30;94.65;84213.81;5089434;28;20199;-55
2023/08/06 02:39:33;;;;;;;14.57;11.73;;;;;;;-144.30;94.92;84215.78;5088501;28;20199;-50
2023/08/06 02:42:14;;;;;;;13.07;11.70;;;;;;;-144.30;95.68;84247.59;5088806;28;20203;-51
2023/08/06 02:44:58;;;;;;;13.40;11.60;;;;;;;-144.30;95.59;84219.78;5088290;28;20231;-54
2023/08/06 02:47:41;;;;;;;15.68;11.73;;;;;;;-144.30;95.73;84233.69;5088401;28;20219;-55
2023/08/06 02:50:22;;;;;;;14.50;12.35;;;;;;;-144.30;95.75;84217.78;5088946;28;20207;-54
2023/08/06 02:53:07;;;;;;;14.25;12.77;;;;;;;-144.30;95.81;84225.75;5088954;28;20191;-51
2023/08/06 02:56:04;;;;;;;13.10;11.95;;;;;;;-144.30;95.92;84255.53;5089086;28;20187;-55
2023/08/06 02:58:50;;;;;;;16.50;12.90;;;;;;;-144.30;96.02;84229.72;5089060;28;20195;-55
2023/08/06 03:01:44;;;;;;;;;;;;;;;;;;;;;
2023/08/06 03:04:35;;;;;;;15.15;13.60;;;;;;;-144.30;96.10;84273.44;5088806;28;20745;-49
2023/08/06 03:07:12;;;;;;;15.43;13.82;;;;;;;-144.30;96.29;84267.47;5089025;28;20277;-50
2023/08/06 03:10:06;;;;;;;15.35;13.73;;;;;;;-144.30;96.61;84287.34;5088219;28;20195;-50
2023/08/06 03:12:59;;;;;;;17.02;14.63;;;;;;;-144.30;96.39;84257.53;5089271;28;20283;-54
2023/08/06 03:15:35;;;;;;;17.08;14.50;;;;;;;-144.30;96.49;84227.72;5089106;28;20195;-53
2023/08/06 03:18:18;;;;;;;16.55;14.57;;;;;;;-144.30;96.76;84255.53;5088916;28;20198;-51
2023/08/06 03:21:11;;;;;;;16.42;14.85;;;;;;;-144.30;96.51;84237.66;5088564;28;20199;-54
2023/08/06 03:26:49;;;;;;;17.15;15.75;;;;;;;-144.30;95.93;84275.41;5088322;28;20199;-49
2023/08/06 03:29:34;;;;;;;18.27;15.70;;;;;;;-144.30;96.04;84247.59;5088847;28;20667;-55
2023/08/06 03:32:19;;;;;;;20.23;16.95;;;;;;;-144.30;95.97;84227.72;5088770;28;20202;-55
2023/08/06 03:35:18;;;;;;;22.38;18.85;;;;;;;-144.30;96.63;84255.53;5088103;28;20203;-54
2023/08/06 03:38:05;;;;;;;21.00;18.45;;;;;;;-144.30;97.26;84303.25;5088079;28;20195;-55
2023/08/06 03:40:43;;;;;;;20.17;18.00;;;;;;;-144.30;97.47;84279.38;5084913;28;20204;-51
2023/08/06 03:43:19;;;;;;;23.83;18.65;;;;;;;-144.30;97.19;84273.44;5088540;28;20667;-49
2023/08/06 03:46:01;;;;;;;25.35;20.75;;;;;;;-144.30;97.26;84251.56;5088129;28;20287;-51
2023/08/06 03:48:43;;;;;;;21.60;19.60;;;;;;;-144.30;97.39;84295.28;5088354;28;20321;-49
2023/08/06 03:51:13;;;;;;;20.65;18.60;;;;;;;-144.30;97.46;84279.38;5088316;28;20199;-50
2023/08/06 03:53:56;;;;;;;21.52;19.48;;;;;;;-144.30;97.87;84287.34;5085371;28;20230;-50
2023/08/06 03:56:41;;;;;;;22.17;19.88;;;;;;;-144.30;97.94;84267.47;5088350;28;20195;-55
2023/08/06 03:59:25;;;;;;;22.75;19.80;;;;;;;-144.30;97.87;84311.19;5088516;28;20241;-49
2023/08/06 04:02:08;;;;;;;24.33;20.33;;;;;;;-144.30;98.13;84271.44;5088333;28;20199;-54
2023/08/06 04:04:38;;;;;;;32.10;21.70;;;;;;;-144.30;98.24;84259.50;5088322;28;20292;-49
2023/08/06 04:07:20;;;;;;;25.98;22.35;;;;;;;-144.30;98.16;84271.44;5087701;28;20192;-49
2023/08/06 04:10:13;;;;;;;29.98;22.63;;;;;;;-144.30;98.64;84267.47;5087982;28;20244;-49
2023/08/06 04:13:02;;;;;;;26.20;21.38;;;;;;;-144.30;98.58;84299.25;5087819;28;20204;-50
2023/08/06 04:15:48;;;;;;;23.92;21.40;;;;;;;-144.30;98.17;84295.28;5087894;28;20290;-51
2023/08/06 04:18:31;;;;;;;29.92;23.15;;;;;;;-144.30;97.83;84158.16;5088402;28;20215;-50
2023/08/06 04:21:12;;;;;;;24.73;22.15;;;;;;;-144.30;97.65;84253.56;5088165;28;20256;-50
2023/08/06 04:24:04;;;;;;;24.38;21.88;;;;;;;-144.30;97.41;84275.41;5091399;28;20195;-50
2023/08/06 04:26:47;;;;;;;22.67;20.40;;;;;;;-144.30;97.39;84215.78;5092125;28;20199;-54
2023/08/06 04:29:15;;;;;;;33.38;21.02;;;;;;;-144.30;97.14;84201.88;5088694;28;20199;-51
2023/08/06 04:31:46;;;;;;;27.08;21.42;;;;;;;-144.30;96.71;84249.59;5089381;28;20279;-55
2023/08/06 04:34:22;;;;;;;26.88;21.08;;;;;;;-144.30;96.60;84213.81;5091714;28;20195;-54
2023/08/06 04:36:54;;;;;;;22.88;20.30;;;;;;;-144.30;96.53;84211.81;5090999;28;20203;-53
2023/08/06 04:39:33;;;;;;;31.45;22.42;;;;;;;-144.30;96.09;84217.78;5090049;28;20203;-54
2023/08/06 04:42:05;;;;;;;31.02;23.67;;;;;;;-144.30;95.79;84225.75;5087207;28;20195;-54
2023/08/06 04:44:36;;;;;;;30.17;22.60;;;;;;;-144.30;95.85;84180.03;5090824;28;20223;-51
2023/08/06 04:47:04;;;;;;;27.38;22.15;;;;;;;-144.30;95.25;84191.94;5080136;28;20199;-53
2023/08/06 04:49:34;;;;;;;25.80;23.08;;;;;;;-144.30;94.46;84172.06;5090800;28;20837;-55
2023/08/06 04:52:06;;;;;;;30.88;24.83;;;;;;;-144.30;94.21;84162.16;5089952;28;20202;-50
2023/08/06 04:54:37;;;;;;;28.33;24.75;;;;;;;-144.30;93.82;84144.25;5090981;28;20266;-51
2023/08/06 04:57:07;;;;;;;29.38;25.58;;;;;;;-144.30;93.21;84152.22;5090816;28;20285;-49
2023/08/06 04:59:56;;;;;;;30.90;24.73;;;;;;;-144.30;92.88;84110.47;5087765;28;20244;-51
2023/08/06 05:02:39;;;;;;;31.63;25.80;;;;;;;-144.30;92.17;84078.69;5089579;28;20199;-50
2023/08/06 05:05:14;;;;;;;32.90;26.98;;;;;;;-144.30;92.20;84116.44;5090507;28;20744;-50
2023/08/06 05:07:57;;;;;;;31.85;26.73;;;;;;;-144.30;92.33;84130.34;5090911;28;20314;-50
2023/08/06 05:10:29;;;;;;;29.48;26.23;;;;;;;-144.30;92.45;84154.19;5087424;28;20206;-51
2023/08/06 05:13:00;;;;;;;30.55;26.75;;;;;;;-144.30;92.78;84140.28;5083609;28;20210;-50
2023/08/06 05:15:28;;;;;;;28.70;25.70;;;;;;;-144.30;93.44;84172.06;5080249;28;20295;-50
2023/08/06 05:17:56;;;;;;;31.98;26.42;;;;;;;-144.30;93.44;84156.19;5089156;28;20278;-50
2023/08/06 05:20:32;;;;;;;29.20;25.70;;;;;;;-144.30;93.29;84156.19;5090232;28;20199;-50
2023/08/06 05:23:18;;;;;;;30.75;26.33;;;;;;;-144.30;93.25;84154.19;5089781;28;20199;-54
2023/08/06 05:25:59;;;;;;;30.48;26.13;;;;;;;-144.30;93.83;84156.19;5090533;28;20698;-55
2023/08/06 05:28:41;;;;;;;28.65;25.80;;;;;;;-144.30;93.46;84144.25;5089465;28;20192;-54
2023/08/06 05:31:17;;;;;;;28.48;25.58;;;;;;;-144.30;92.87;84106.50;5087777;28;20244;-50
2023/08/06 05:33:50;;;;;;;33.28;25.67;;;;;;;-144.30;92.77;84168.09;5086889;28;20599;-51
2023/08/06 05:36:24;;;;;;;26.95;24.08;;;;;;;-144.30;93.02;84140.28;5090301;28;20718;-50
2023/08/06 05:38:54;;;;;;;35.65;22.25;;;;;;;-144.30;94.97;84128.34;5086993;28;20598;-50
2023/08/06 05:41:25;;;;;;;26.42;19.48;;;;;;;-144.30;95.27;84164.13;5089960;28;20191;-50
2023/08/06 05:44:06;;;;;;;22.08;19.45;;;;;;;-144.30;96.59;84191.94;5089402;28;20234;-51
2023/08/06 05:49:50;;;;;;;23.20;17.05;;;;;;;-144.30;96.62;84235.66;5089763;28;20613;-55
2023/08/06 05:52:42;;;;;;;19.90;14.98;;;;;;;-144.30;97.00;84263.50;5089508;28;20260;-54
2023/08/06 05:55:32;;;;;;;17.20;14.82;;;;;;;-144.30;97.17;84255.53;5090012;28;20188;-50
2023/08/06 05:58:26;;;;;;;16.75;12.25;;;;;;;-144.30;96.85;84070.72;5068734;28;20660;-51
2023/08/06 06:01:06;;;;;;;13.38;10.95;;;;;;;-144.30;95.81;84339.00;5069445;28;20282;-50
2023/08/06 06:04:05;;;;;;;15.07;11.07;;;;;;;-144.30;96.78;84350.94;5069719;28;20202;-51
2023/08/06 06:06:48;;;;;;;18.58;10.27;;;;;;;-144.30;96.92;84348.94;5069581;28;20726;-49
2023/08/06 06:12:32;;;;;;;16.83;10.10;;;;;;;-144.30;99.21;84370.81;5065889;28;20234;-50
2023/08/06 06:15:27;;;;;;;14.73;10.15;;;;;;;-144.30;98.55;84376.78;5068730;28;20226;-51
2023/08/06 06:18:16;;;;;;;12.10;10.35;;;;;;;-144.30;98.55;84358.88;5069299;28;20246;-50
2023/08/06 06:21:12;;;;;;;15.05;13.55;;;;;;;-144.30;100.00;84378.75;5069337;28;20287;-53
2023/08/06 06:27:04;;;;;;;12.93;10.98;;;;;;;-144.30;100.00;84390.69;5068776;28;20192;-53
2023/08/06 06:29:52;;;;;;;16.42;10.50;;;;;;;-144.30;99.35;84426.47;5069202;28;20192;-54
2023/08/06 06:32:53;;;;;;;10.82;9.75;;;;;;;-144.30;99.34;84482.09;5068688;28;20211;-49
2023/08/06 06:35:50;;;;;;;11.77;10.35;;;;;;;-144.30;100.00;84424.47;5069162;28;20191;-50
2023/08/06 06:38:47;;;;;;;13.32;10.93;;;;;;;-144.30;100.00;84470.19;5069136;28;20204;-49
2023/08/06 06:41:44;;;;;;;12.18;10.60;;;;;;;-144.30;100.00;84470.19;5068018;28;20196;-49
2023/08/06 06:44:22;;;;;;;14.02;10.00;;;;;;;-144.30;100.00;84436.38;5068137;28;20200;-55
2023/08/06 06:46:50;;;;;;;11.88;10.45;;;;;;;-144.30;100.00;84442.34;5088470;28;20199;-51
2023/08/06 06:49:28;;;;;;;12.95;11.02;;;;;;;-144.30;100.00;84474.16;5088017;28;20288;-53
2023/08/06 06:51:58;;;;;;;12.73;11.43;;;;;;;-144.30;100.00;84480.13;5088418;28;20667;-54
2023/08/06 06:54:35;;;;;;;12.32;11.18;;;;;;;-144.30;100.00;84448.31;5084825;28;20307;-55
2023/08/06 06:57:13;;;;;;;29.33;25.42;;;;;;;-144.30;100.00;84390.69;5085716;28;20727;-54
2023/08/06 06:59:53;;;;;;;15.52;13.85;;;;;;;-144.30;100.00;84352.91;5085822;28;20285;-55
2023/08/06 07:02:40;;;;;;;12.27;10.30;;;;;;;-144.30;99.88;84342.97;5088367;28;20584;-54
2023/08/06 07:05:29;;;;;;;11.48;10.38;;;;;;;-144.30;98.85;84303.25;5086717;28;20280;-55
2023/08/06 07:08:08;;;;;;;11.98;10.82;;;;;;;-144.30;98.39;84281.38;5088883;28;20282;-55
2023/08/06 07:10:57;;;;;;;14.13;11.70;;;;;;;-144.30;96.84;84261.50;5088646;28;20876;-54
2023/08/06 07:13:45;;;;;;;21.75;17.08;;;;;;;-144.30;96.34;84231.69;5089809;28;20199;-53
2023/08/06 07:16:40;;;;;;;13.32;11.82;;;;;;;-144.30;94.12;84193.94;5088862;28;20199;-55
2023/08/06 07:19:31;;;;;;;11.55;10.45;;;;;;;-144.30;92.71;84134.31;5089427;28;20209;-51
2023/08/06 07:22:23;;;;;;;15.38;11.60;;;;;;;-144.30;90.44;83887.91;5089269;28;20235;-51
2023/08/06 07:24:51;;;;;;;16.98;15.00;;;;;;;-144.30;86.88;83883.94;5089076;28;20606;-51
2023/08/06 07:27:30;;;;;;;17.80;12.30;;;;;;;-144.30;84.83;83818.38;5089660;28;20199;-55
2023/08/06 07:30:18;;;;;;;10.80;9.75;;;;;;;-144.30;84.10;83854.13;5088581;28;20226;-55
2023/08/06 07:32:53;;;;;;;266.40;33.55;;;;;;;-144.30;85.29;83919.72;5089609;28;20241;-55
2023/08/06 07:35:43;;;;;;;28.67;12.57;;;;;;;-144.30;86.37;83923.69;5089320;28;20197;-55
2023/08/06 07:38:40;;;;;;;56.78;14.77;;;;;;;-144.30;87.21;83953.50;5089393;28;20203;-55
2023/08/06 07:41:31;;;;;;;73.40;16.38;;;;;;;-144.30;87.33;83965.41;5088705;28;20191;-55
2023/08/06 07:44:23;;;;;;;91.38;21.27;;;;;;;-144.30;85.69;83728.97;5089278;28;20202;-55
2023/08/06 07:46:52;;;;;;;70.25;16.42;;;;;;;-144.30;82.03;83655.44;5089544;28;20252;-55
2023/08/06 07:49:36;;;;;;;86.95;18.58;;;;;;;-144.30;80.75;83601.78;5088594;28;20737;-55
2023/08/06 07:52:20;;;;;;;26.30;14.23;;;;;;;-144.30;81.13;83683.25;5089269;28;20203;-55
2023/08/06 07:55:08;;;;;;;26.98;14.48;;;;;;;-144.30;83.30;83798.50;5088946;28;20230;-55
2023/08/06 07:57:37;;;;;;;90.50;20.00;;;;;;;-144.30;83.74;83826.31;5091031;28;20256;-55
2023/08/06 08:00:21;;;;;;;35.20;15.20;;;;;;;-144.30;85.06;83870.03;5091880;28;20191;-54
2023/08/06 08:03:03;;;;;;;16.40;14.27;;;;;;;-144.30;85.88;83925.66;5092810;28;20199;-54
2023/08/06 08:05:56;;;;;;;14.70;13.05;;;;;;;-144.30;87.42;83905.81;5091997;28;20227;-49
2023/08/06 08:08:47;;;;;;;19.00;15.60;;;;;;;-144.30;87.92;83957.47;5092500;28;20621;-50
2023/08/06 08:11:52;;;;;;;18.48;14.10;;;;;;;-144.30;87.58;84068.75;5092466;28;20199;-48
2023/08/06 08:14:47;;;;;;;16.08;13.27;;;;;;;-144.30;87.24;84029.00;5093172;28;20704;-50
2023/08/06 08:17:42;;;;;;;20.08;14.18;;;;;;;-144.30;88.06;83981.31;5092585;28;20274;-54
2023/08/06 08:20:21;;;;;;;15.88;14.48;;;;;;;-144.30;89.04;84098.56;5086104;28;20663;-51
2023/08/06 08:22:56;;;;;;;19.02;14.20;;;;;;;-144.30;89.90;84156.19;5092107;28;20236;-53
2023/08/06 08:25:42;;;;;;;15.70;14.13;;;;;;;-144.30;90.94;84116.44;5092316;28;20219;-55
2023/08/06 08:28:39;;;;;;;15.77;13.68;;;;;;;-144.30;90.86;84160.16;5078290;28;20290;-50
2023/08/06 08:31:29;;;;;;;14.50;13.20;;;;;;;-144.30;90.39;84130.34;5102459;28;20215;-48
2023/08/06 08:34:09;;;;;;;16.13;14.13;;;;;;;-144.30;91.64;84128.34;5090531;28;20244;-49
2023/08/06 08:37:06;;;;;;;16.33;14.15;;;;;;;-144.30;91.70;84136.31;5092177;28;20686;-49
2023/08/06 08:40:03;;;;;;;16.33;14.73;;;;;;;-144.30;91.59;84162.16;5091638;28;20196;-50
2023/08/06 08:42:55;;;;;;;17.02;15.25;;;;;;;-144.30;91.39;84176.06;5092071;28;20676;-49
2023/08/06 08:46:00;;;;;;;16.77;14.27;;;;;;;-144.30;91.72;84213.81;5091760;28;20259;-49
2023/08/06 08:48:43;;;;;;;27.15;18.35;;;;;;;-144.30;92.04;84176.06;5091348;28;20758;-49
2023/08/06 08:51:22;;;;;;;17.35;15.57;;;;;;;-144.30;91.73;84211.81;5090568;28;20203;-50
2023/08/06 08:54:12;;;;;;;18.65;15.60;;;;;;;-144.30;92.63;84176.06;5091271;28;20660;-50
2023/08/06 08:56:54;;;;;;;16.80;15.20;;;;;;;-144.30;91.44;84203.88;5088447;28;20237;-49
2023/08/06 08:59:24;;;;;;;17.05;15.45;;;;;;;-144.30;91.72;84195.94;5088514;28;20286;-48
2023/08/06 09:02:17;;;;;;;19.23;17.38;;;;;;;-144.30;91.28;84148.22;5091281;28;20577;-50
2023/08/06 09:04:59;;;;;;;21.30;18.42;;;;;;;-144.30;90.40;84128.34;5088673;28;20196;-55
2023/08/06 09:07:39;;;;;;;33.50;27.80;;;;;;;-144.30;89.56;84122.41;5088880;28;20249;-54
2023/08/06 09:10:35;;;;;;;17.23;14.63;;;;;;;-144.30;86.27;83850.16;5089222;28;20207;-55
2023/08/06 09:13:16;;;;;;;15.15;13.63;;;;;;;-144.30;81.67;83631.59;5088900;28;20667;-49
2023/08/06 09:16:05;;;;;;;17.73;14.55;;;;;;;-144.30;76.68;83365.34;5089353;28;20217;-51
2023/08/06 09:18:36;;;;;;;14.23;12.88;;;;;;;-144.30;71.16;83152.78;5091058;28;20207;-51
2023/08/06 09:21:12;;;;;;;16.95;15.32;;;;;;;-144.30;68.21;82983.91;5090810;28;20218;-55
2023/08/06 09:23:40;;;;;;;12.15;11.15;;;;;;;-144.30;64.55;82850.81;5078653;28;20191;-55
2023/08/06 09:26:15;;;;;;;13.98;12.77;;;;;;;-144.30;63.21;83194.50;5090549;28;20215;-55
2023/08/06 09:28:53;;;;;;;9.93;9.10;;;;;;;-144.30;57.18;82626.34;5090506;28;20202;-51
2023/08/06 09:31:39;;;;;;;9.75;8.48;;;;;;;-144.30;55.05;82507.19;5091141;28;20238;-55
2023/08/06 09:34:27;;;;;;;9.30;8.50;;;;;;;-144.30;52.85;82348.28;5090478;28;20202;-51
2023/08/06 09:37:14;;;;;;;7.55;7.05;;;;;;;-144.30;50.84;82258.91;5090136;28;20694;-49
2023/08/06 09:39:58;;;;;;;11.65;10.55;;;;;;;-144.30;49.71;82177.47;5089980;28;20207;-51
2023/08/06 09:42:55;;;;;;;6.45;6.05;;;;;;;-144.30;47.98;82165.56;5090385;28;20203;-50
2023/08/06 09:45:44;;;;;;;6.00;5.60;;;;;;;-144.30;48.29;82378.06;5091138;28;20310;-50
2023/08/06 09:48:40;;;;;;;7.38;6.97;;;;;;;-144.30;48.59;82495.25;5090351;28;20797;-50
2023/08/06 09:51:29;;;;;;;6.50;5.93;;;;;;;-144.30;50.18;82646.22;5089440;28;20191;-49
2023/08/06 09:54:18;;;;;;;6.15;5.25;;;;;;;-144.30;49.05;82610.47;5088972;28;20215;-54
2023/08/06 09:57:07;;;;;;;6.10;5.70;;;;;;;-144.30;48.63;82310.53;5090252;28;20691;-54
2023/08/06 10:00:06;;;;;;;9.30;8.55;;;;;;;-144.30;46.61;82441.63;5091160;28;20241;-55
2023/08/06 10:02:41;;;;;;;7.00;6.40;;;;;;;-144.30;45.68;82376.09;5089581;28;20191;-55
2023/08/06 10:05:17;;;;;;;5.55;5.18;;;;;;;-144.30;46.69;82467.44;5087691;28;20194;-51
2023/08/06 10:07:52;;;;;;;6.82;6.43;;;;;;;-144.30;46.36;82427.72;5086323;28;20195;-51
2023/08/06 10:10:20;;;;;;;7.53;6.90;;;;;;;-144.30;44.64;82340.34;5089868;28;20199;-50
2023/08/06 10:12:57;;;;;;;8.55;8.02;;;;;;;-144.30;44.67;82310.53;5089979;28;20206;-55
2023/08/06 10:15:45;;;;;;;9.23;8.48;;;;;;;-144.30;44.17;82354.25;5090090;28;20218;-54
2023/08/06 10:18:33;;;;;;;7.90;7.32;;;;;;;-144.30;43.92;82294.66;5090244;28;20289;-50
2023/08/06 10:21:03;;;;;;;8.65;8.15;;;;;;;-144.30;44.15;82344.31;5087496;28;20199;-54
2023/08/06 10:27:03;;;;;;;8.73;8.13;;;;;;;-144.30;41.59;82421.78;5068503;28;20233;-55
2023/08/06 10:30:01;;;;;;;6.93;6.43;;;;;;;-144.30;42.23;82280.75;5069868;28;20524;-53
2023/08/06 10:32:57;;;;;;;9.10;8.50;;;;;;;-144.30;43.00;82380.06;5069709;28;20338;-54
2023/08/06 10:35:36;;;;;;;7.15;6.78;;;;;;;-144.30;42.96;82437.66;5074466;28;20567;-54
2023/08/06 10:38:07;;;;;;;7.50;7.10;;;;;;;-144.30;43.21;82417.78;5086762;28;20210;-51
2023/08/06 10:40:42;;;;;;;7.20;6.80;;;;;;;-144.30;43.22;82467.44;5089465;28;20195;-52
2023/08/06 10:43:27;;;;;;;6.63;6.32;;;;;;;-144.30;42.85;82459.50;5087201;28;20202;-51
2023/08/06 10:45:58;;;;;;;7.65;7.07;;;;;;;-144.30;43.28;82507.19;5088589;28;20258;-52
2023/08/06 10:49:01;;;;;;;12.45;11.45;;;;;;;-144.30;43.18;82511.16;5089364;28;20330;-54
2023/08/06 10:52:12;;;;;;;8.20;7.80;;;;;;;-144.30;42.83;82479.38;5087800;28;20194;-51
2023/08/06 10:54:46;;;;;;;8.23;7.72;;;;;;;-144.30;42.12;82475.41;5087701;28;20198;-53
2023/08/06 10:57:26;;;;;;;8.63;7.90;;;;;;;-144.30;42.46;82499.22;5087210;28;20189;-53
2023/08/06 11:00:13;;;;;;;14.20;8.15;;;;;;;-144.30;42.44;82538.97;5087049;28;20236;-51
2023/08/06 11:02:58;;;;;;;9.00;8.18;;;;;;;-144.30;42.11;82638.28;5088112;28;20679;-51
2023/08/06 11:05:32;;;;;;;12.90;11.95;;;;;;;-144.30;42.91;82586.63;5081417;28;20597;-51
2023/08/06 11:08:07;;;;;;;9.60;8.13;;;;;;;-144.30;42.13;82610.47;5084965;28;20230;-52
2023/08/06 11:10:42;;;;;;;7.82;7.22;;;;;;;-144.30;42.17;82535.00;5087050;28;20198;-50
2023/08/06 11:13:24;;;;;;;7.50;6.95;;;;;;;-144.30;41.28;82479.38;5086312;28;20183;-51
2023/08/06 11:15:58;;;;;;;6.97;6.47;;;;;;;-144.30;41.36;82483.34;5086531;28;20191;-51
2023/08/06 11:18:36;;;;;;;7.78;7.10;;;;;;;-144.30;41.42;82552.88;5088803;28;20207;-52
2023/08/06 11:21:14;;;;;;;6.60;5.88;;;;;;;-144.30;39.41;82491.28;5088390;28;20195;-52
2023/08/06 11:23:58;;;;;;;6.57;6.00;;;;;;;-144.30;39.56;82469.44;5088455;28;20692;-51
2023/08/06 11:26:40;;;;;;;13.38;12.20;;;;;;;-144.30;40.08;82455.53;5087868;28;20215;-51
2023/08/06 11:29:23;;;;;;;7.13;6.53;;;;;;;-144.30;39.76;82517.09;5088826;28;20614;-54
2023/08/06 11:32:08;;;;;;;8.10;7.70;;;;;;;-144.30;39.60;82523.06;5089636;28;20213;-54
2023/08/06 11:34:49;;;;;;;7.05;6.47;;;;;;;-144.30;39.10;82479.38;5091113;28;20233;-55
2023/08/06 11:37:28;;;;;;;8.13;7.43;;;;;;;-144.30;39.85;82397.94;5091198;28;20204;-55
2023/08/06 11:40:03;;;;;;;6.40;6.00;;;;;;;-144.30;39.63;82376.09;5090481;28;20187;-55
2023/08/06 11:42:42;;;;;;;13.52;6.53;;;;;;;-144.30;39.72;82417.78;5090066;28;20676;-54
2023/08/06 11:45:29;;;;;;;5.38;5.00;;;;;;;-144.30;39.10;82447.59;5089786;28;20191;-55
2023/08/06 11:48:01;;;;;;;5.28;4.88;;;;;;;-144.30;39.07;82431.69;5090896;28;20588;-51
2023/08/06 11:50:43;;;;;;;5.30;4.95;;;;;;;-144.30;38.93;82469.44;5089960;28;20203;-54
2023/08/06 11:53:22;;;;;;;5.53;5.13;;;;;;;-144.30;39.34;82479.38;5090093;28;20306;-54
2023/08/06 11:56:03;;;;;;;5.22;4.60;;;;;;;-144.30;38.83;82527.03;5089998;28;20195;-54
2023/08/06 11:58:37;;;;;;;4.90;4.18;;;;;;;-144.30;38.77;82481.34;5090210;28;20197;-49
2023/08/06 12:01:15;;;;;;;4.30;4.00;;;;;;;-144.30;38.78;82483.34;5092359;28;20197;-50
2023/08/06 12:03:55;;;;;;;4.85;3.53;;;;;;;-144.30;37.90;82501.22;5091104;28;20226;-50
2023/08/06 12:06:33;;;;;;;4.35;3.63;;;;;;;-144.30;38.08;82576.69;5091292;28;20211;-51
2023/08/06 12:09:10;;;;;;;3.65;3.40;;;;;;;-144.30;38.25;82652.19;5091443;28;20197;-50
2023/08/06 12:12:05;;;;;;;3.70;3.50;;;;;;;-144.30;38.56;82616.44;5090602;28;20693;-51
2023/08/06 12:14:47;;;;;;;3.67;3.40;;;;;;;-144.30;38.57;82662.09;5092137;28;20287;-51
2023/08/06 12:17:18;;;;;;;3.40;3.20;;;;;;;-144.30;37.83;82703.81;5089719;28;20184;-54
2023/08/06 12:19:53;;;;;;;3.42;3.22;;;;;;;-144.30;38.04;82709.78;5091784;28;20195;-51
2023/08/06 12:22:23;;;;;;;3.47;3.28;;;;;;;-144.30;38.10;82719.72;5091029;28;20256;-50
2023/08/06 12:24:53;;;;;;;4.32;3.65;;;;;;;-144.30;38.05;82652.19;5091502;28;20365;-50
2023/08/06 12:27:22;;;;;;;4.10;3.70;;;;;;;-144.30;38.13;82685.94;5091091;28;20602;-51
2023/08/06 12:29:52;;;;;;;3.00;2.80;;;;;;;-144.30;37.98;82721.69;5091337;28;20196;-51
2023/08/06 12:32:25;;;;;;;3.58;3.33;;;;;;;-144.30;37.74;82705.81;5087263;28;20231;-52
2023/08/06 12:34:55;;;;;;;3.83;3.53;;;;;;;-144.30;38.22;82656.16;5089016;28;20196;-50
2023/08/06 12:37:28;;;;;;;3.50;3.17;;;;;;;-144.30;37.77;82674.03;5087779;28;20191;-54
2023/08/06 12:39:57;;;;;;;3.50;3.30;;;;;;;-144.30;37.38;82693.88;5090340;28;20618;-55